createdAt,value
2019-06-08T00:00:09.533Z,20.12
2019-06-08T00:02:37.930Z,20.12
2019-06-08T00:05:07.716Z,20.06
2019-06-08T00:07:36.174Z,20.12
2019-06-08T00:10:07.222Z,20.18
2019-06-08T00:12:35.793Z,20.21
2019-06-08T00:15:06.023Z,20.29
2019-06-08T00:17:38.829Z,20.22
2019-06-08T00:20:06.700Z,20.19
2019-06-08T00:22:35.181Z,20.27
2019-06-08T00:25:03.920Z,20.41
2019-06-08T00:27:32.514Z,20.45
2019-06-08T00:30:00.914Z,20.44
2019-06-08T00:32:29.316Z,20.39
2019-06-08T00:34:57.756Z,20.35
2019-06-08T00:37:26.154Z,20.29
2019-06-08T00:39:54.564Z,20.34
2019-06-08T00:42:23.359Z,20.43
2019-06-08T00:44:51.770Z,20.52
2019-06-08T00:47:20.527Z,20.60
2019-06-08T00:49:49.222Z,20.64
2019-06-08T00:52:18.867Z,20.73
2019-06-08T00:54:47.298Z,20.77
2019-06-08T00:57:15.793Z,20.75
2019-06-08T00:59:44.198Z,20.78
2019-06-08T01:02:12.660Z,20.79
2019-06-08T01:04:41.090Z,20.83
2019-06-08T01:07:09.481Z,20.85
2019-06-08T01:09:37.881Z,20.88
2019-06-08T01:12:06.592Z,20.92
2019-06-08T01:14:34.989Z,20.97
2019-06-08T01:17:03.380Z,21.02
2019-06-08T01:19:32.047Z,21.04
2019-06-08T01:22:00.555Z,21.04
2019-06-08T01:24:30.004Z,21.06
2019-06-08T01:26:58.574Z,20.99
2019-06-08T01:29:28.334Z,20.98
2019-06-08T01:31:56.934Z,21.00
2019-06-08T01:34:26.930Z,21.03
2019-06-08T01:36:55.513Z,21.04
2019-06-08T01:39:25.042Z,21.03
2019-06-08T01:41:53.625Z,21.01
2019-06-08T01:44:22.029Z,20.97
2019-06-08T01:46:50.426Z,20.95
2019-06-08T01:49:18.860Z,20.93
2019-06-08T01:51:47.252Z,20.91
2019-06-08T01:54:15.651Z,20.87
2019-06-08T01:56:44.077Z,20.87
2019-06-08T01:59:12.471Z,20.89
2019-06-08T02:01:40.882Z,20.89
2019-06-08T02:04:10.959Z,20.87
2019-06-08T02:06:39.427Z,20.84
2019-06-08T02:09:08.756Z,20.79
2019-06-08T02:11:37.340Z,20.77
2019-06-08T02:14:06.196Z,20.74
2019-06-08T02:16:35.438Z,20.75
2019-06-08T02:19:04.091Z,20.78
2019-06-08T02:21:32.788Z,20.74
2019-06-08T02:24:01.365Z,20.72
2019-06-08T02:26:30.978Z,20.61
2019-06-08T02:28:59.982Z,20.34
2019-06-08T02:31:30.516Z,20.18
2019-06-08T02:33:58.855Z,20.03
2019-06-08T02:36:28.784Z,19.89
2019-06-08T02:38:57.406Z,19.80
2019-06-08T02:41:25.835Z,19.72
2019-06-08T02:43:55.528Z,19.55
2019-06-08T02:46:23.936Z,19.43
2019-06-08T02:49:03.427Z,19.50
2019-06-08T02:51:23.244Z,19.47
2019-06-08T02:53:51.806Z,19.42
2019-06-08T02:56:23.534Z,19.36
2019-06-08T02:58:52.950Z,19.28
2019-06-08T03:01:22.785Z,19.29
2019-06-08T03:03:52.917Z,19.35
2019-06-08T03:06:21.863Z,19.39
2019-06-08T03:08:50.959Z,19.40
2019-06-08T03:11:21.098Z,19.36
2019-06-08T03:13:50.490Z,19.34
2019-06-08T03:16:18.882Z,19.28
2019-06-08T03:18:47.312Z,19.28
2019-06-08T03:21:15.769Z,19.28
2019-06-08T03:23:44.135Z,19.25
2019-06-08T03:26:12.562Z,19.24
2019-06-08T03:28:42.198Z,19.21
2019-06-08T03:31:11.171Z,19.22
2019-06-08T03:33:48.966Z,19.18
2019-06-08T03:36:09.710Z,19.20
2019-06-08T03:38:39.911Z,19.21
2019-06-08T03:41:08.295Z,19.13
2019-06-08T03:43:37.616Z,19.00
2019-06-08T03:46:06.964Z,18.92
2019-06-08T03:48:37.168Z,18.89
2019-06-08T03:51:06.072Z,18.95
2019-06-08T03:53:35.735Z,18.98
2019-06-08T03:56:04.571Z,19.01
2019-06-08T03:58:34.137Z,18.97
2019-06-08T04:01:02.979Z,18.97
2019-06-08T04:03:31.412Z,18.97
2019-06-08T04:05:59.810Z,19.05
2019-06-08T04:08:28.217Z,19.08
2019-06-08T04:10:56.736Z,19.10
2019-06-08T04:13:25.143Z,19.04
2019-06-08T04:15:53.539Z,18.95
2019-06-08T04:18:21.957Z,18.90
2019-06-08T04:20:51.517Z,18.87
2019-06-08T04:23:20.228Z,18.94
2019-06-08T04:25:50.447Z,18.99
2019-06-08T04:28:19.027Z,19.03
2019-06-08T04:30:49.919Z,19.04
2019-06-08T04:33:17.941Z,19.10
2019-06-08T04:35:47.209Z,19.10
2019-06-08T04:38:15.966Z,19.06
2019-06-08T04:40:46.093Z,18.99
2019-06-08T04:43:14.504Z,18.95
2019-06-08T04:45:43.603Z,18.92
2019-06-08T04:48:13.070Z,18.91
2019-06-08T04:50:42.897Z,18.84
2019-06-08T04:53:11.633Z,18.89
2019-06-08T04:55:40.916Z,18.93
2019-06-08T04:58:09.523Z,19.01
2019-06-08T05:00:39.110Z,19.10
2019-06-08T05:03:08.046Z,19.05
2019-06-08T05:05:36.440Z,19.02
2019-06-08T05:08:04.851Z,19.06
2019-06-08T05:10:35.457Z,19.05
2019-06-08T05:13:03.558Z,19.03
2019-06-08T05:15:32.025Z,19.02
2019-06-08T05:18:00.468Z,19.10
2019-06-08T05:20:38.219Z,19.27
2019-06-08T05:22:58.982Z,19.40
2019-06-08T05:25:27.400Z,19.43
2019-06-08T05:27:55.804Z,19.53
2019-06-08T05:30:24.265Z,19.56
2019-06-08T05:32:52.706Z,19.63
2019-06-08T05:35:21.101Z,19.75
2019-06-08T05:37:49.796Z,19.89
2019-06-08T05:40:19.234Z,20.01
2019-06-08T05:42:47.945Z,20.06
2019-06-08T05:45:17.442Z,20.10
2019-06-08T05:47:46.023Z,20.16
2019-06-08T05:50:14.649Z,20.17
2019-06-08T05:52:44.186Z,20.16
2019-06-08T05:55:12.977Z,20.14
2019-06-08T05:57:42.106Z,20.19
2019-06-08T06:00:11.926Z,20.25
2019-06-08T06:02:40.336Z,20.24
2019-06-08T06:05:08.914Z,20.25
2019-06-08T06:07:37.327Z,20.22
2019-06-08T06:10:06.182Z,20.24
2019-06-08T06:12:34.576Z,20.17
2019-06-08T06:15:03.916Z,20.14
2019-06-08T06:17:32.341Z,20.17
2019-06-08T06:20:00.729Z,20.23
2019-06-08T06:22:29.125Z,20.24
2019-06-08T06:24:57.548Z,20.24
2019-06-08T06:27:26.883Z,20.28
2019-06-08T06:29:55.412Z,20.28
2019-06-08T06:32:24.109Z,20.28
2019-06-08T06:34:52.499Z,20.31
2019-06-08T06:37:21.083Z,20.34
2019-06-08T06:39:50.080Z,20.35
2019-06-08T06:42:18.873Z,20.38
2019-06-08T06:44:48.946Z,20.40
2019-06-08T06:47:17.670Z,20.37
2019-06-08T06:49:46.434Z,20.39
2019-06-08T06:52:14.841Z,20.41
2019-06-08T06:54:44.632Z,20.40
2019-06-08T06:57:13.129Z,20.39
2019-06-08T06:59:41.526Z,20.45
2019-06-08T07:02:09.961Z,20.45
2019-06-08T07:04:38.829Z,20.48
2019-06-08T07:07:07.350Z,20.51
2019-06-08T07:09:35.755Z,20.55
2019-06-08T07:12:05.625Z,20.61
2019-06-08T07:14:34.008Z,20.62
2019-06-08T07:17:02.602Z,20.64
2019-06-08T07:19:30.984Z,20.69
2019-06-08T07:21:59.406Z,20.74
2019-06-08T07:24:27.930Z,20.79
2019-06-08T07:26:56.351Z,20.84
2019-06-08T07:29:24.737Z,20.88
2019-06-08T07:31:53.413Z,20.89
2019-06-08T07:34:21.917Z,20.90
2019-06-08T07:36:51.325Z,20.93
2019-06-08T07:39:19.902Z,20.95
2019-06-08T07:41:48.950Z,20.98
2019-06-08T07:44:18.477Z,21.00
2019-06-08T07:46:47.067Z,21.03
2019-06-08T07:49:15.483Z,21.10
2019-06-08T07:51:57.615Z,21.17
2019-06-08T07:54:14.211Z,21.17
2019-06-08T07:56:42.610Z,21.19
2019-06-08T07:59:11.019Z,21.30
2019-06-08T08:01:39.439Z,21.39
2019-06-08T08:04:07.838Z,21.43
2019-06-08T08:06:36.235Z,21.42
2019-06-08T08:09:07.010Z,21.38
2019-06-08T08:11:35.399Z,21.36
2019-06-08T08:14:04.098Z,21.37
2019-06-08T08:16:32.501Z,21.38
2019-06-08T08:19:00.907Z,21.30
2019-06-08T08:21:29.672Z,21.24
2019-06-08T08:24:00.054Z,21.25
2019-06-08T08:26:31.295Z,21.33
2019-06-08T08:29:01.503Z,21.43
2019-06-08T08:31:28.835Z,21.50
2019-06-08T08:34:03.073Z,21.47
2019-06-08T08:36:29.433Z,21.34
2019-06-08T08:39:00.450Z,21.18
2019-06-08T08:41:27.990Z,21.08
2019-06-08T08:44:00.815Z,20.99
2019-06-08T08:46:28.604Z,20.96
2019-06-08T08:49:05.936Z,21.00
2019-06-08T08:51:27.948Z,21.00
2019-06-08T08:54:02.014Z,21.01
2019-06-08T08:56:27.989Z,21.09
2019-06-08T08:58:59.250Z,21.03
2019-06-08T09:01:28.899Z,20.98
2019-06-08T09:04:01.670Z,20.90
2019-06-08T09:06:27.972Z,20.87
2019-06-08T09:09:00.810Z,20.84
2019-06-08T09:11:28.894Z,20.93
2019-06-08T09:13:59.293Z,21.03
2019-06-08T09:16:28.866Z,21.01
2019-06-08T09:19:01.218Z,21.02
2019-06-08T09:21:28.071Z,21.11
2019-06-08T09:24:00.658Z,21.24
2019-06-08T09:26:28.919Z,21.34
2019-06-08T09:28:58.261Z,21.31
2019-06-08T09:31:28.159Z,21.28
2019-06-08T09:34:05.405Z,21.28
2019-06-08T09:36:28.673Z,21.37
2019-06-08T09:38:59.643Z,21.57
2019-06-08T09:41:30.862Z,21.63
2019-06-08T09:44:00.539Z,21.55
2019-06-08T09:46:28.065Z,21.60
2019-06-08T09:49:03.656Z,21.65
2019-06-08T09:51:28.518Z,21.68
2019-06-08T09:54:00.816Z,21.68
2019-06-08T09:56:28.326Z,21.87
2019-06-08T09:59:01.315Z,22.01
2019-06-08T10:01:28.661Z,22.23
2019-06-08T10:04:00.616Z,22.34
2019-06-08T10:06:27.320Z,22.40
2019-06-08T10:08:56.342Z,22.44
2019-06-08T10:11:28.247Z,22.56
2019-06-08T10:13:59.878Z,22.76
2019-06-08T10:16:27.998Z,22.75
2019-06-08T10:19:02.296Z,22.78
2019-06-08T10:21:31.140Z,22.78
2019-06-08T10:24:04.800Z,22.91
2019-06-08T10:26:33.354Z,22.97
2019-06-08T10:29:04.090Z,23.10
2019-06-08T10:31:38.887Z,23.01
2019-06-08T10:36:50.674Z,23.15
2019-06-08T10:39:19.068Z,23.32
2019-06-08T10:41:51.336Z,23.45
2019-06-08T10:44:18.366Z,23.53
2019-06-08T10:46:48.268Z,23.61
2019-06-08T10:49:18.625Z,23.75
2019-06-08T10:51:48.998Z,23.90
2019-06-08T10:54:17.563Z,23.85
2019-06-08T10:56:48.408Z,23.71
2019-06-08T10:59:18.315Z,23.67
2019-06-08T11:01:46.406Z,23.80
2019-06-08T11:04:14.806Z,23.99
2019-06-08T11:06:43.391Z,24.04
2019-06-08T11:09:14.345Z,23.99
2019-06-08T11:11:41.926Z,23.90
2019-06-08T11:14:12.744Z,23.87
2019-06-08T11:16:40.651Z,23.99
2019-06-08T11:19:12.931Z,24.13
2019-06-08T11:21:39.379Z,24.23
2019-06-08T11:24:21.655Z,24.42
2019-06-08T11:26:40.272Z,24.62
2019-06-08T11:29:11.774Z,24.78
2019-06-08T11:31:39.285Z,24.89
2019-06-08T11:34:08.642Z,25.06
2019-06-08T11:36:39.464Z,25.17
2019-06-08T11:39:10.850Z,25.17
2019-06-08T11:41:38.434Z,24.86
2019-06-08T11:44:11.631Z,24.82
2019-06-08T11:46:38.436Z,24.93
2019-06-08T11:49:12.560Z,24.89
2019-06-08T11:51:37.965Z,24.81
2019-06-08T11:54:25.661Z,24.90
2019-06-08T11:56:39.974Z,25.06
2019-06-08T11:59:07.308Z,25.25
2019-06-08T12:01:35.920Z,25.40
2019-06-08T12:04:05.733Z,25.23
2019-06-08T12:06:34.518Z,25.23
2019-06-08T12:09:02.984Z,25.41
2019-06-08T12:11:31.886Z,25.58
2019-06-08T12:14:00.457Z,25.69
2019-06-08T12:16:28.853Z,25.77
2019-06-08T12:19:00.267Z,25.97
2019-06-08T12:21:28.765Z,26.13
2019-06-08T12:23:57.233Z,26.27
2019-06-08T12:26:25.802Z,26.45
2019-06-08T12:28:54.249Z,26.56
2019-06-08T12:31:22.972Z,26.60
2019-06-08T12:33:52.675Z,26.67
2019-06-08T12:36:21.160Z,26.74
2019-06-08T12:38:49.499Z,26.63
2019-06-08T12:41:19.250Z,26.70
2019-06-08T12:43:48.077Z,26.76
2019-06-08T12:46:19.097Z,26.73
2019-06-08T12:48:46.651Z,26.75
2019-06-08T12:51:16.595Z,26.79
2019-06-08T12:53:45.365Z,26.80
2019-06-08T12:56:14.777Z,26.71
2019-06-08T12:58:43.757Z,26.68
2019-06-08T13:01:12.750Z,26.66
2019-06-08T13:03:41.497Z,26.64
2019-06-08T13:06:12.076Z,26.66
2019-06-08T13:08:40.127Z,26.69
2019-06-08T13:11:09.789Z,26.68
2019-06-08T13:13:38.751Z,26.73
2019-06-08T13:16:08.415Z,26.69
2019-06-08T13:18:40.355Z,26.45
2019-06-08T13:21:18.738Z,26.35
2019-06-08T13:23:40.805Z,26.42
2019-06-08T13:26:08.878Z,26.48
2019-06-08T13:28:38.531Z,26.47
2019-06-08T13:31:07.915Z,26.39
2019-06-08T13:33:38.266Z,26.16
2019-06-08T13:36:06.860Z,25.97
2019-06-08T13:38:35.258Z,26.06
2019-06-08T13:41:03.671Z,26.21
2019-06-08T13:43:32.087Z,26.30
2019-06-08T13:46:00.483Z,26.38
2019-06-08T13:48:28.882Z,26.46
2019-06-08T13:50:59.310Z,26.38
2019-06-08T13:53:31.610Z,26.19
2019-06-08T13:55:57.842Z,26.00
2019-06-08T13:58:32.860Z,25.87
2019-06-08T14:00:59.826Z,25.68
2019-06-08T14:03:28.518Z,25.69
2019-06-08T14:05:56.952Z,25.89
2019-06-08T14:08:29.977Z,25.92
2019-06-08T14:11:00.478Z,25.86
2019-06-08T14:13:31.125Z,25.86
2019-06-08T14:15:58.452Z,26.00
2019-06-08T14:18:33.045Z,26.05
2019-06-08T14:20:58.973Z,25.97
2019-06-08T14:23:27.092Z,25.90
2019-06-08T14:25:57.817Z,25.88
2019-06-08T14:28:26.622Z,25.92
2019-06-08T14:30:55.863Z,25.94
2019-06-08T14:33:30.742Z,25.81
2019-06-08T14:35:56.765Z,25.70
2019-06-08T14:38:31.578Z,25.71
2019-06-08T14:40:54.655Z,25.84
2019-06-08T14:43:23.097Z,25.85
2019-06-08T14:45:51.567Z,25.83
2019-06-08T14:48:24.293Z,25.86
2019-06-08T14:50:50.272Z,25.97
2019-06-08T14:53:20.141Z,26.09
2019-06-08T14:56:02.211Z,25.98
2019-06-08T14:58:25.913Z,25.90
2019-06-08T15:00:49.322Z,25.91
2019-06-08T15:03:18.391Z,26.06
2019-06-08T15:05:49.870Z,26.22
2019-06-08T15:08:21.626Z,26.32
2019-06-08T15:10:50.332Z,26.42
2019-06-08T15:13:20.299Z,26.49
2019-06-08T15:15:49.130Z,26.51
2019-06-08T15:18:18.687Z,26.56
2019-06-08T15:20:48.164Z,26.63
2019-06-08T15:23:19.708Z,26.69
2019-06-08T15:25:46.709Z,26.65
2019-06-08T15:28:15.139Z,26.62
2019-06-08T15:30:43.541Z,26.58
2019-06-08T15:33:11.934Z,26.65
2019-06-08T15:35:40.344Z,26.75
2019-06-08T15:38:08.745Z,26.77
2019-06-08T15:40:40.263Z,26.77
2019-06-08T15:43:08.833Z,26.76
2019-06-08T15:45:37.744Z,26.73
2019-06-08T15:48:08.030Z,26.69
2019-06-08T15:50:37.934Z,26.58
2019-06-08T15:53:08.313Z,26.42
2019-06-08T15:55:37.965Z,26.43
2019-06-08T15:58:09.040Z,26.52
2019-06-08T16:00:36.904Z,26.60
2019-06-08T16:03:05.370Z,26.64
2019-06-08T16:05:33.933Z,26.79
2019-06-08T16:08:02.372Z,26.98
2019-06-08T16:10:30.770Z,27.17
2019-06-08T16:12:59.210Z,27.35
2019-06-08T16:15:28.792Z,27.45
2019-06-08T16:17:57.280Z,27.57
2019-06-08T16:20:25.895Z,27.58
2019-06-08T16:22:54.289Z,27.70
2019-06-08T16:25:22.688Z,27.71
2019-06-08T16:27:51.124Z,27.72
2019-06-08T16:30:19.771Z,27.68
2019-06-08T16:32:48.177Z,27.68
2019-06-08T16:35:16.884Z,27.80
2019-06-08T16:37:45.283Z,27.84
2019-06-08T16:40:14.032Z,27.91
2019-06-08T16:42:42.762Z,27.94
2019-06-08T16:45:11.216Z,27.95
2019-06-08T16:47:42.611Z,28.00
2019-06-08T16:50:23.892Z,28.05
2019-06-08T16:52:41.910Z,28.07
2019-06-08T16:55:10.880Z,28.12
2019-06-08T16:57:41.169Z,28.17
2019-06-08T17:02:40.027Z,28.18
2019-06-08T17:05:08.887Z,28.21
2019-06-08T17:07:37.763Z,28.30
2019-06-08T17:10:07.013Z,28.39
2019-06-08T17:12:35.453Z,28.42
2019-06-08T17:15:04.892Z,28.48
2019-06-08T17:17:34.244Z,28.54
2019-06-08T17:20:04.688Z,28.54
2019-06-08T17:22:34.503Z,28.59
2019-06-08T17:25:03.773Z,28.65
2019-06-08T17:27:32.594Z,28.80
2019-06-08T17:30:08.073Z,28.96
2019-06-08T17:32:31.434Z,29.12
2019-06-08T17:35:00.187Z,29.38
2019-06-08T17:37:28.585Z,29.65
2019-06-08T17:39:56.990Z,29.92
2019-06-08T17:42:25.425Z,30.06
2019-06-08T17:44:53.809Z,29.79
2019-06-08T17:47:24.606Z,29.27
2019-06-08T17:49:52.440Z,28.73
2019-06-08T17:52:20.838Z,28.23
2019-06-08T17:54:49.231Z,27.82
2019-06-08T17:57:17.838Z,27.48
2019-06-08T17:59:46.233Z,27.21
2019-06-08T18:02:22.176Z,26.95
2019-06-08T18:04:44.789Z,26.71
2019-06-08T18:07:13.188Z,26.55
2019-06-08T18:09:42.280Z,26.19
2019-06-08T18:12:12.004Z,26.19
2019-06-08T18:14:42.274Z,26.13
2019-06-08T18:17:11.174Z,26.04
2019-06-08T18:19:42.867Z,25.96
2019-06-08T18:22:15.359Z,25.86
2019-06-08T18:24:41.904Z,25.76
2019-06-08T18:27:10.569Z,25.64
2019-06-08T18:29:41.054Z,25.55
2019-06-08T18:32:10.245Z,25.47
2019-06-08T18:34:40.294Z,25.32
2019-06-08T18:37:09.227Z,25.21
2019-06-08T18:39:41.130Z,25.12
2019-06-08T18:42:08.354Z,25.05
2019-06-08T18:44:40.756Z,24.98
2019-06-08T18:47:08.410Z,24.93
2019-06-08T18:49:38.397Z,24.85
2019-06-08T18:52:08.103Z,24.80
2019-06-08T18:54:39.989Z,24.73
2019-06-08T18:57:11.052Z,24.66
2019-06-08T18:59:46.086Z,24.61
2019-06-08T19:02:08.780Z,24.53
2019-06-08T19:04:39.192Z,24.44
2019-06-08T19:07:08.030Z,24.34
2019-06-08T19:09:38.777Z,24.28
2019-06-08T19:12:06.788Z,24.24
2019-06-08T19:14:37.756Z,24.16
2019-06-08T19:17:07.524Z,24.07
2019-06-08T19:19:38.507Z,23.98
2019-06-08T19:22:08.544Z,23.91
2019-06-08T19:24:40.355Z,23.87
2019-06-08T19:27:07.819Z,23.77
2019-06-08T19:29:38.193Z,23.45
2019-06-08T19:32:07.395Z,23.18
2019-06-08T19:34:37.919Z,23.01
2019-06-08T19:37:07.963Z,22.83
2019-06-08T19:39:36.123Z,22.65
2019-06-08T19:42:05.043Z,22.48
2019-06-08T19:44:33.417Z,22.44
2019-06-08T19:47:01.870Z,22.43
2019-06-08T19:49:30.474Z,22.35
2019-06-08T19:51:58.867Z,22.10
2019-06-08T19:54:27.255Z,21.98
2019-06-08T19:56:57.487Z,21.99
2019-06-08T19:59:27.452Z,22.03
2019-06-08T20:01:57.361Z,22.09
2019-06-08T20:04:27.545Z,22.14
2019-06-08T20:06:57.956Z,22.14
2019-06-08T20:09:28.359Z,22.11
2019-06-08T20:11:59.800Z,22.11
2019-06-08T20:14:26.583Z,22.05
2019-06-08T20:16:55.617Z,22.00
2019-06-08T20:19:25.085Z,21.96
2019-06-08T20:21:53.548Z,21.91
2019-06-08T20:24:21.888Z,21.87
2019-06-08T20:26:53.383Z,21.83
2019-06-08T20:29:20.457Z,21.82
2019-06-08T20:31:51.453Z,21.76
2019-06-08T20:34:19.201Z,21.70
2019-06-08T20:36:48.705Z,21.59
2019-06-08T20:39:39.792Z,21.45
2019-06-08T20:42:11.606Z,21.36
2019-06-08T20:44:38.559Z,21.28
2019-06-08T20:47:08.439Z,21.18
2019-06-08T20:49:37.365Z,20.86
2019-06-08T20:52:08.325Z,20.63
2019-06-08T20:54:36.761Z,20.59
2019-06-08T20:57:07.476Z,20.63
2019-06-08T20:59:39.358Z,20.68
2019-06-08T21:02:08.358Z,20.69
2019-06-08T21:04:38.247Z,20.69
2019-06-08T21:07:08.210Z,20.69
2019-06-08T21:09:37.066Z,20.65
2019-06-08T21:12:05.609Z,20.67
2019-06-08T21:14:34.006Z,20.64
2019-06-08T21:17:02.625Z,20.59
2019-06-08T21:19:31.036Z,20.55
2019-06-08T21:21:59.591Z,20.44
2019-06-08T21:24:28.323Z,20.35
2019-06-08T21:27:00.477Z,20.31
2019-06-08T21:29:38.844Z,20.26
2019-06-08T21:32:01.801Z,20.23
2019-06-08T21:34:27.349Z,20.20
2019-06-08T21:37:00.315Z,20.23
2019-06-08T21:39:28.480Z,20.20
2019-06-08T21:42:01.015Z,20.13
2019-06-08T21:44:27.908Z,19.94
2019-06-08T21:47:00.848Z,19.82
2019-06-08T21:49:27.714Z,19.74
2019-06-08T21:51:59.577Z,19.73
2019-06-08T21:54:27.207Z,19.74
2019-06-08T21:56:58.942Z,19.72
2019-06-08T21:59:25.788Z,19.65
2019-06-08T22:01:55.202Z,19.58
2019-06-08T22:04:24.400Z,19.53
2019-06-08T22:06:54.014Z,19.51
2019-06-08T22:09:22.685Z,19.51
2019-06-08T22:11:52.521Z,19.44
2019-06-08T22:14:21.170Z,19.38
2019-06-08T22:16:52.523Z,19.29
2019-06-08T22:19:21.283Z,19.11
2019-06-08T22:21:52.048Z,19.01
2019-06-08T22:24:19.821Z,18.96
2019-06-08T22:26:48.209Z,18.89
2019-06-08T22:29:18.225Z,18.75
2019-06-08T22:31:47.919Z,18.65
2019-06-08T22:34:17.485Z,18.70
2019-06-08T22:36:47.763Z,18.58
2019-06-08T22:39:17.541Z,18.45
2019-06-08T22:41:47.825Z,18.34
2019-06-08T22:44:17.742Z,18.33
2019-06-08T22:46:47.888Z,18.28
2019-06-08T22:49:18.449Z,18.28
2019-06-08T22:51:47.735Z,18.27
2019-06-08T22:54:17.064Z,18.31
2019-06-08T22:56:47.669Z,18.40
2019-06-08T22:59:17.460Z,18.46
2019-06-08T23:01:47.584Z,18.50
2019-06-08T23:04:18.245Z,18.56
2019-06-08T23:06:47.629Z,18.53
2019-06-08T23:09:17.969Z,18.47
2019-06-08T23:11:47.087Z,18.44
2019-06-08T23:14:17.930Z,18.40
2019-06-08T23:16:47.177Z,18.45
2019-06-08T23:19:17.411Z,18.47
2019-06-08T23:21:47.491Z,18.37
2019-06-08T23:24:18.116Z,18.23
2019-06-08T23:26:47.985Z,18.16
2019-06-08T23:29:17.864Z,18.12
2019-06-08T23:31:47.889Z,18.04
2019-06-08T23:34:18.307Z,17.90
2019-06-08T23:36:58.265Z,17.71
2019-06-08T23:39:17.981Z,17.55
2019-06-08T23:41:48.282Z,17.47
2019-06-08T23:44:17.626Z,17.40
2019-06-08T23:46:47.678Z,17.35
2019-06-08T23:49:18.688Z,17.22
2019-06-08T23:51:47.522Z,17.13
2019-06-08T23:54:18.389Z,17.11
2019-06-08T23:56:47.682Z,17.09
2019-06-08T23:59:17.797Z,17.10
